Time;durP1;ratioP1;P1;durP2;ratioP2;P2;SDS_P1;SDS_P2;PMS_P1;PMS_P2;Temp;Humidity;BMP_temperature;BMP_pressure;BME280_temperature;BME280_humidity;BME280_pressure;Samples;Min_cycle;Max_cycle;Signal;HPM_P1;HPM_P2
2021/12/31 00:00:20;;;;;;;41.13;20.70;;;;;;;-2.14;75.15;99591.33;1755030;81;21094;-52
2021/12/31 00:02:47;;;;;;;36.17;18.20;;;;;;;-2.12;75.18;99592.18;1755240;80;21074;-52
2021/12/31 00:05:13;;;;;;;36.80;18.67;;;;;;;-2.09;75.22;99583.40;1750948;81;21478;-52
2021/12/31 00:07:39;;;;;;;35.10;19.87;;;;;;;-2.09;75.28;99600.54;1755346;80;21123;-52
2021/12/31 00:10:07;;;;;;;37.13;18.17;;;;;;;-2.08;75.31;99599.66;1755930;81;21129;-52
2021/12/31 00:12:34;;;;;;;35.33;19.17;;;;;;;-2.08;75.39;99606.27;1770806;79;21089;-52
2021/12/31 00:15:01;;;;;;;35.63;19.47;;;;;;;-2.07;75.43;99604.06;1744615;80;22138;-52
2021/12/31 00:17:27;;;;;;;34.73;18.83;;;;;;;-2.06;75.46;99604.07;1746803;80;21522;-52
2021/12/31 00:20:08;;;;;;;34.10;20.17;;;;;;;-2.05;75.48;99591.77;1772307;78;21417;-52
2021/12/31 00:25:18;;;;;;;;;;;;;;;-2.03;75.59;99589.98;1771203;79;21048;-52
2021/12/31 00:27:44;;;;;;;38.20;19.43;;;;;;;-2.04;75.65;99586.46;1770806;79;21199;-52
2021/12/31 00:30:12;;;;;;;37.63;20.47;;;;;;;-2.04;75.71;99581.19;1769475;79;21453;-52
2021/12/31 00:32:39;;;;;;;34.50;19.43;;;;;;;-2.04;75.80;99558.77;1771069;80;21442;-52
2021/12/31 00:35:06;;;;;;;35.10;19.10;;;;;;;-2.04;75.80;99556.13;1769535;79;21587;-51
2021/12/31 00:37:36;;;;;;;37.33;20.10;;;;;;;-2.03;75.80;99563.61;1770189;79;21104;-50
2021/12/31 00:40:09;;;;;;;33.60;17.77;;;;;;;-2.03;75.86;99576.80;1749327;80;21120;-50
2021/12/31 00:42:36;;;;;;;38.50;20.67;;;;;;;-2.02;75.92;99570.64;1757160;79;21500;-51
2021/12/31 00:45:05;;;;;;;33.70;17.70;;;;;;;-2.00;75.94;99560.98;1731877;81;21147;-51
2021/12/31 00:47:31;;;;;;;36.83;19.87;;;;;;;-1.99;76.02;99554.83;1733640;81;21364;-50
2021/12/31 00:49:57;;;;;;;32.67;18.73;;;;;;;-1.97;76.01;99557.03;1726120;81;20977;-50
2021/12/31 00:52:24;;;;;;;35.27;19.13;;;;;;;-1.96;76.04;99549.56;1728316;81;21506;-50
2021/12/31 00:54:50;;;;;;;37.03;19.83;;;;;;;-1.94;76.06;99544.70;1723191;81;21530;-51
2021/12/31 00:57:16;;;;;;;33.47;17.80;;;;;;;-1.92;76.09;99546.02;1722703;81;21641;-51
2021/12/31 00:59:43;;;;;;;34.43;18.27;;;;;;;-1.92;76.11;99548.22;1725255;81;21571;-50
2021/12/31 01:02:11;;;;;;;31.50;17.33;;;;;;;-1.92;76.15;99554.81;1724542;81;21055;-50
2021/12/31 01:04:38;;;;;;;34.63;18.87;;;;;;;-1.93;76.19;99551.73;1726789;81;21787;-50
2021/12/31 01:07:05;;;;;;;38.90;19.53;;;;;;;-1.90;76.30;99542.95;1726778;81;22417;-50
2021/12/31 01:09:31;;;;;;;37.20;17.93;;;;;;;-1.87;76.28;99552.16;1725830;81;22376;-51
2021/12/31 01:12:01;;;;;;;34.97;19.63;;;;;;;-1.87;76.25;99550.83;1742723;80;21104;-51
2021/12/31 01:17:02;;;;;;;36.73;18.77;;;;;;;-1.86;76.31;99532.80;1728037;81;22789;-51
2021/12/31 01:21:52;;;;;;;35.80;20.47;;;;;;;-1.82;76.28;99535.02;1744326;80;21338;-51
2021/12/31 01:24:22;;;;;;;38.60;19.73;;;;;;;-1.83;76.36;99530.61;1743786;80;21066;-50
2021/12/31 01:26:47;;;;;;;35.47;18.37;;;;;;;-1.81;76.37;99527.53;1714014;81;21101;-51
2021/12/31 01:29:13;;;;;;;37.20;19.33;;;;;;;-1.83;76.41;99528.86;1715079;81;21053;-50
2021/12/31 01:31:40;;;;;;;31.97;18.80;;;;;;;-1.82;76.40;99521.37;1719812;81;21102;-51
2021/12/31 01:34:06;;;;;;;36.83;18.77;;;;;;;-1.83;76.39;99512.14;1713115;81;21027;-51
2021/12/31 01:36:33;;;;;;;36.30;19.40;;;;;;;-1.84;76.40;99503.35;1716445;81;21357;-51
2021/12/31 01:38:59;;;;;;;34.40;18.13;;;;;;;-1.83;76.43;99501.59;1716558;81;21075;-52
2021/12/31 01:41:25;;;;;;;35.53;17.97;;;;;;;-1.84;76.48;99496.75;1748223;80;22337;-52
2021/12/31 01:43:52;;;;;;;34.27;18.13;;;;;;;-1.83;76.46;99495.00;1738441;80;22286;-51
2021/12/31 01:46:19;;;;;;;35.40;19.23;;;;;;;-1.84;76.52;99500.71;1744290;80;21029;-51
2021/12/31 01:49:04;;;;;;;34.87;19.67;;;;;;;-1.83;76.51;99500.27;1742475;80;21078;-51
2021/12/31 01:51:16;;;;;;;34.37;19.00;;;;;;;-1.82;76.53;99500.72;1731762;80;21422;-52
2021/12/31 01:53:42;;;;;;;35.03;18.37;;;;;;;-1.83;76.54;99503.79;1744126;80;21203;-52
2021/12/31 01:57:43;;;;;;;34.07;17.80;;;;;;;-1.76;76.51;99498.05;1851237;75;26701;-51
2021/12/31 02:00:12;;;;;;;29.70;16.13;;;;;;;-1.81;76.56;99492.80;1819241;77;20958;-52
2021/12/31 02:02:38;;;;;;;36.67;19.63;;;;;;;-1.80;76.55;99493.23;1816679;77;21166;-51
2021/12/31 02:05:07;;;;;;;32.33;17.17;;;;;;;-1.79;76.51;99486.20;1750217;77;20981;-52
2021/12/31 02:07:33;;;;;;;36.50;19.67;;;;;;;-1.81;76.52;99474.33;1823478;77;21019;-52
2021/12/31 02:10:00;;;;;;;32.33;18.40;;;;;;;-1.81;76.54;99469.05;1818846;77;21026;-51
2021/12/31 02:12:27;;;;;;;36.30;18.20;;;;;;;-1.82;76.53;99471.69;1754508;79;21186;-52
2021/12/31 02:14:55;;;;;;;32.37;18.17;;;;;;;-1.83;76.54;99469.49;1774991;78;21038;-52
2021/12/31 02:17:22;;;;;;;32.07;17.80;;;;;;;-1.83;76.56;99468.17;1760852;80;20994;-51
2021/12/31 02:20:01;;;;;;;40.43;18.83;;;;;;;-1.85;76.62;99468.61;1764768;80;21081;-51
2021/12/31 02:22:28;;;;;;;31.97;17.63;;;;;;;-1.83;76.72;99467.30;1759701;78;21533;-51
2021/12/31 02:24:56;;;;;;;33.50;18.27;;;;;;;-1.83;76.78;99462.90;1761405;80;21425;-51
2021/12/31 02:27:23;;;;;;;32.27;17.90;;;;;;;-1.81;76.87;99463.78;1763683;80;22040;-51
2021/12/31 02:29:50;;;;;;;30.80;17.73;;;;;;;-1.79;76.93;99462.02;1769108;80;20994;-51
2021/12/31 02:32:17;;;;;;;35.73;19.10;;;;;;;-1.76;76.95;99465.06;1763093;80;20995;-51
2021/12/31 02:34:45;;;;;;;33.37;18.57;;;;;;;-1.75;77.01;99454.52;1760965;80;20950;-51
2021/12/31 02:37:11;;;;;;;35.77;18.40;;;;;;;-1.75;77.03;99454.52;1766535;80;21059;-51
2021/12/31 02:39:42;;;;;;;32.53;17.10;;;;;;;-1.72;77.09;99450.55;1760320;80;21135;-50
2021/12/31 02:42:08;;;;;;;38.83;20.17;;;;;;;-1.70;77.14;99454.03;1765532;80;20932;-51
2021/12/31 02:44:36;;;;;;;30.20;18.40;;;;;;;-1.69;77.15;99449.64;1762304;79;20923;-51
2021/12/31 02:47:05;;;;;;;36.13;18.83;;;;;;;-1.68;77.22;99449.64;1763002;80;20939;-51
2021/12/31 02:49:38;;;;;;;34.10;18.73;;;;;;;-1.68;77.26;99448.32;1764340;80;21055;-51
2021/12/31 02:52:06;;;;;;;34.00;19.57;;;;;;;-1.66;77.30;99446.56;1769840;80;21108;-51
2021/12/31 02:54:33;;;;;;;32.03;19.67;;;;;;;-1.64;77.42;99445.23;1761671;80;20904;-52
2021/12/31 02:57:00;;;;;;;32.73;18.93;;;;;;;-1.63;77.42;99455.80;1763735;80;21983;-51
2021/12/31 02:59:26;;;;;;;33.83;20.17;;;;;;;-1.63;77.47;99452.28;1768643;80;20978;-51
2021/12/31 03:01:52;;;;;;;37.53;19.87;;;;;;;-1.62;77.55;99455.36;1779610;79;21090;-51
2021/12/31 03:04:18;;;;;;;35.50;19.20;;;;;;;-1.62;77.61;99448.76;1760026;80;21515;-51
2021/12/31 03:06:46;;;;;;;32.13;19.93;;;;;;;-1.60;77.72;99449.60;1763155;80;21439;-51
2021/12/31 03:09:12;;;;;;;35.43;21.47;;;;;;;-1.57;77.79;99449.60;1761084;79;21039;-51
2021/12/31 03:11:40;;;;;;;36.27;20.63;;;;;;;-1.56;77.87;99446.08;1761472;80;21089;-51
2021/12/31 03:14:06;;;;;;;32.67;20.00;;;;;;;-1.54;77.92;99447.84;1761173;80;21105;-51
2021/12/31 03:16:33;;;;;;;38.80;21.57;;;;;;;-1.52;77.99;99446.48;1761340;80;21529;-51
2021/12/31 03:19:00;;;;;;;31.87;18.73;;;;;;;-1.50;78.12;99447.80;1761753;78;21050;-51
2021/12/31 03:21:27;;;;;;;33.50;19.37;;;;;;;-1.48;78.25;99446.05;1758665;80;21241;-50
2021/12/31 03:23:54;;;;;;;34.87;19.03;;;;;;;-1.47;78.36;99450.00;1759650;78;21370;-51
2021/12/31 03:26:21;;;;;;;28.80;17.60;;;;;;;-1.45;78.44;99439.00;1763730;80;21390;-50
2021/12/31 03:28:49;;;;;;;34.90;18.20;;;;;;;-1.42;78.63;99446.00;1764379;79;23114;-51
2021/12/31 03:31:16;;;;;;;33.50;17.73;;;;;;;-1.40;78.73;99441.59;1762127;80;21003;-51
2021/12/31 03:33:43;;;;;;;33.77;19.50;;;;;;;-1.39;78.77;99443.36;1760394;80;21018;-51
2021/12/31 03:36:09;;;;;;;34.80;17.57;;;;;;;-1.38;78.85;99442.03;1762953;80;21734;-50
2021/12/31 03:38:37;;;;;;;31.30;18.93;;;;;;;-1.37;78.98;99429.72;1764792;79;21117;-50
2021/12/31 03:41:04;;;;;;;35.57;18.90;;;;;;;-1.37;79.08;99425.31;1764042;79;21030;-51
2021/12/31 03:43:30;;;;;;;32.40;18.37;;;;;;;-1.36;79.20;99426.19;1760913;80;21339;-51
2021/12/31 03:45:56;;;;;;;36.97;19.50;;;;;;;-1.34;79.27;99425.72;1762279;79;22542;-51
2021/12/31 03:48:23;;;;;;;32.03;18.90;;;;;;;-1.32;79.44;99421.31;1765218;78;21460;-50
2021/12/31 03:50:49;;;;;;;33.83;18.37;;;;;;;-1.29;79.48;99416.02;1762496;79;21439;-51
2021/12/31 03:53:16;;;;;;;32.03;18.57;;;;;;;-1.28;79.53;99416.02;1760415;80;22320;-51
2021/12/31 03:55:43;;;;;;;31.60;17.60;;;;;;;-1.27;79.57;99416.42;1761152;80;21372;-51
2021/12/31 03:58:09;;;;;;;30.03;17.60;;;;;;;-1.25;79.67;99413.78;1763649;80;21327;-51
2021/12/31 04:00:36;;;;;;;36.40;19.40;;;;;;;-1.22;79.80;99417.73;1763049;80;21109;-49
2021/12/31 04:03:09;;;;;;;34.23;18.03;;;;;;;-1.21;79.87;99408.48;1765185;80;21089;-49
2021/12/31 04:05:37;;;;;;;35.40;18.33;;;;;;;-1.18;79.94;99408.88;1761516;80;21991;-49
2021/12/31 04:08:05;;;;;;;36.03;18.90;;;;;;;-1.16;79.98;99405.36;1732974;80;22293;-48
2021/12/31 04:10:32;;;;;;;32.87;18.23;;;;;;;-1.14;80.06;99402.71;1759968;80;21094;-49
2021/12/31 04:12:59;;;;;;;36.30;20.27;;;;;;;-1.13;80.17;99402.27;1759207;80;21065;-49
2021/12/31 04:15:25;;;;;;;35.67;18.43;;;;;;;-1.11;80.25;99405.34;1761948;80;21105;-49
2021/12/31 04:17:52;;;;;;;30.87;18.53;;;;;;;-1.09;80.32;99411.91;1764133;79;21153;-49
2021/12/31 04:20:32;;;;;;;31.67;19.13;;;;;;;-1.08;80.36;99411.02;1756998;80;21065;-49
2021/12/31 04:22:57;;;;;;;31.03;17.60;;;;;;;-1.06;80.44;99408.81;1758192;80;21773;-49
2021/12/31 04:25:23;;;;;;;33.55;17.77;;;;;;;-1.04;80.54;99397.80;1760962;80;21168;-49
2021/12/31 04:27:49;;;;;;;34.67;18.13;;;;;;;-1.01;80.67;99398.20;1771676;80;21578;-48
2021/12/31 04:30:15;;;;;;;40.13;21.23;;;;;;;-0.98;80.75;99391.58;1758163;80;22549;-49
2021/12/31 04:32:42;;;;;;;36.07;19.20;;;;;;;-0.97;80.82;99392.90;1759009;80;21058;-50
2021/12/31 04:35:13;;;;;;;31.73;19.23;;;;;;;-0.94;80.90;99390.25;1761961;80;21066;-49
2021/12/31 04:37:41;;;;;;;38.03;21.07;;;;;;;-0.92;80.96;99392.84;1762810;80;20932;-49
2021/12/31 04:40:09;;;;;;;38.60;18.50;;;;;;;-0.90;81.02;99389.31;1760383;80;21377;-50
2021/12/31 04:42:41;;;;;;;35.30;19.83;;;;;;;-0.88;81.11;99380.06;1762048;78;20998;-49
2021/12/31 04:45:11;;;;;;;32.00;18.83;;;;;;;-0.85;81.18;99376.08;1761159;80;21458;-49
2021/12/31 04:47:38;;;;;;;33.70;19.63;;;;;;;-0.86;81.21;99380.48;1763252;80;21002;-48
2021/12/31 04:50:06;;;;;;;32.07;19.93;;;;;;;-0.84;81.25;99373.84;1760997;80;22469;-48
2021/12/31 04:52:32;;;;;;;34.77;19.30;;;;;;;-0.83;81.34;99372.52;1763170;80;20924;-49
2021/12/31 04:54:58;;;;;;;35.67;19.07;;;;;;;-0.82;81.38;99370.75;1765295;80;21147;-49
2021/12/31 04:57:26;;;;;;;35.40;18.57;;;;;;;-0.80;81.47;99371.62;1761576;79;21059;-48
2021/12/31 04:59:53;;;;;;;34.77;19.97;;;;;;;-0.79;81.53;99362.80;1759589;78;21082;-49
2021/12/31 05:02:19;;;;;;;34.37;19.67;;;;;;;-0.79;81.58;99366.33;1760549;80;21133;-49
2021/12/31 05:04:45;;;;;;;33.50;20.10;;;;;;;-0.77;81.64;99366.31;1766867;80;22395;-49
2021/12/31 05:07:12;;;;;;;33.90;18.00;;;;;;;-0.76;81.71;99360.99;1759610;80;21104;-50
2021/12/31 05:09:38;;;;;;;35.33;19.57;;;;;;;-0.74;81.79;99359.66;1758631;80;21133;-49
2021/12/31 05:12:06;;;;;;;34.77;18.87;;;;;;;-0.72;81.83;99357.89;1762538;80;21086;-48
2021/12/31 05:14:34;;;;;;;33.20;19.60;;;;;;;-0.71;81.89;99363.61;1763573;80;20931;-48
2021/12/31 05:17:00;;;;;;;38.80;20.30;;;;;;;-0.69;81.97;99364.92;1762997;80;20948;-49
2021/12/31 05:19:26;;;;;;;32.47;18.80;;;;;;;-0.68;82.01;99359.59;1761231;80;20966;-49
2021/12/31 05:21:53;;;;;;;36.47;18.67;;;;;;;-0.66;82.09;99360.91;1768321;78;21487;-49
2021/12/31 05:24:19;;;;;;;37.00;19.53;;;;;;;-0.65;82.15;99363.98;1764666;80;21536;-49
2021/12/31 05:26:46;;;;;;;34.87;19.87;;;;;;;-0.63;82.23;99363.53;1765957;78;21426;-49
2021/12/31 05:29:12;;;;;;;38.90;20.70;;;;;;;-0.62;82.26;99354.28;1764555;80;20977;-50
2021/12/31 05:31:40;;;;;;;34.50;19.93;;;;;;;-0.61;82.32;99345.91;1763992;80;21058;-50
2021/12/31 05:34:06;;;;;;;33.43;18.80;;;;;;;-0.60;82.38;99343.69;1764883;80;20986;-49
2021/12/31 05:36:32;;;;;;;34.97;19.17;;;;;;;-0.57;82.47;99339.67;1759597;78;21881;-49
2021/12/31 05:38:59;;;;;;;40.97;21.60;;;;;;;-0.57;82.51;99333.95;1763338;80;21421;-49
2021/12/31 05:41:25;;;;;;;42.57;24.20;;;;;;;-0.55;82.55;99337.45;1765865;79;20999;-49
2021/12/31 05:43:51;;;;;;;40.67;25.87;;;;;;;-0.53;82.61;99344.05;1765475;80;20937;-49
2021/12/31 05:46:18;;;;;;;40.57;23.63;;;;;;;-0.52;82.67;99351.98;1765580;80;20891;-49
2021/12/31 05:48:44;;;;;;;46.20;25.53;;;;;;;-0.50;82.71;99341.36;1764261;80;21425;-49
2021/12/31 05:51:10;;;;;;;40.47;24.70;;;;;;;-0.49;82.83;99335.19;1771051;80;20979;-49
2021/12/31 05:53:37;;;;;;;40.07;24.10;;;;;;;-0.47;82.85;99344.86;1765843;80;21437;-48
2021/12/31 05:56:04;;;;;;;39.97;22.77;;;;;;;-0.46;82.86;99347.06;1762498;79;21106;-49
2021/12/31 05:58:32;;;;;;;37.47;21.33;;;;;;;-0.44;82.99;99343.96;1762827;80;20963;-49
2021/12/31 06:00:58;;;;;;;38.00;21.07;;;;;;;-0.42;83.00;99340.83;1761079;80;21038;-49
2021/12/31 06:03:25;;;;;;;38.40;22.60;;;;;;;-0.41;83.08;99339.94;1757791;80;22108;-49
2021/12/31 06:05:52;;;;;;;36.57;21.53;;;;;;;-0.40;83.14;99353.59;1765294;78;21571;-49
2021/12/31 06:08:18;;;;;;;38.50;22.20;;;;;;;-0.39;83.17;99351.39;1760735;80;21512;-49
2021/12/31 06:10:44;;;;;;;36.43;20.80;;;;;;;-0.37;83.20;99359.31;1762666;80;21512;-48
2021/12/31 06:13:11;;;;;;;40.53;22.03;;;;;;;-0.35;83.31;99362.38;1768941;80;21023;-49
2021/12/31 06:15:41;;;;;;;36.00;20.90;;;;;;;-0.34;83.35;99359.28;1764013;78;21697;-49
2021/12/31 06:18:09;;;;;;;37.03;20.33;;;;;;;-0.31;83.35;99357.91;1748244;80;21082;-50
2021/12/31 06:20:37;;;;;;;40.33;21.10;;;;;;;-0.29;83.39;99360.09;1764922;80;21485;-49
2021/12/31 06:23:04;;;;;;;36.20;20.83;;;;;;;-0.29;83.43;99364.06;1765358;78;21467;-50
2021/12/31 06:25:30;;;;;;;37.83;21.67;;;;;;;-0.28;83.46;99369.79;1763328;80;21034;-49
2021/12/31 06:27:57;;;;;;;38.30;23.23;;;;;;;-0.27;83.57;99372.42;1766323;80;21078;-49
2021/12/31 06:30:23;;;;;;;38.03;22.00;;;;;;;-0.26;83.56;99374.63;1760854;80;21062;-50
2021/12/31 06:32:49;;;;;;;37.70;22.10;;;;;;;-0.25;83.62;99382.52;1760552;80;21067;-49
2021/12/31 06:35:16;;;;;;;38.23;21.07;;;;;;;-0.25;83.65;99377.22;1763049;79;21085;-50
2021/12/31 06:37:42;;;;;;;37.87;20.53;;;;;;;-0.23;83.68;99376.77;1764174;79;21451;-51
2021/12/31 06:40:11;;;;;;;36.23;20.70;;;;;;;-0.23;83.74;99379.86;1761078;80;21713;-50
2021/12/31 06:42:38;;;;;;;35.60;20.73;;;;;;;-0.22;83.77;99382.49;1765116;80;21426;-50
2021/12/31 06:45:05;;;;;;;36.40;21.20;;;;;;;-0.22;83.80;99380.30;1764185;80;21078;-50
2021/12/31 06:47:31;;;;;;;42.07;21.27;;;;;;;-0.21;83.88;99377.64;1763556;80;20990;-50
2021/12/31 06:49:58;;;;;;;39.63;20.93;;;;;;;-0.18;83.94;99379.38;1760950;78;22070;-50
2021/12/31 06:52:24;;;;;;;38.53;20.83;;;;;;;-0.18;84.00;99379.38;1760797;78;22498;-49
2021/12/31 06:54:51;;;;;;;42.67;21.33;;;;;;;-0.17;84.03;99370.08;1759525;78;21137;-49
2021/12/31 06:57:17;;;;;;;41.67;22.63;;;;;;;-0.15;84.11;99372.27;1766783;78;21078;-50
2021/12/31 06:59:43;;;;;;;41.83;22.60;;;;;;;-0.12;84.15;99372.25;1762914;79;21047;-50
2021/12/31 07:02:10;;;;;;;42.13;23.00;;;;;;;-0.10;84.16;99373.11;1772348;79;21059;-49
2021/12/31 07:04:37;;;;;;;39.10;21.53;;;;;;;-0.08;84.24;99377.91;1761093;79;21053;-50
2021/12/31 07:07:04;;;;;;;39.13;20.90;;;;;;;-0.05;84.29;99383.19;1785915;78;21070;-50
2021/12/31 07:09:31;;;;;;;34.43;18.70;;;;;;;-0.01;84.36;99376.98;1787623;78;21549;-50
2021/12/31 07:11:57;;;;;;;38.60;21.17;;;;;;;0.04;84.36;99378.67;1770102;79;21686;-50
2021/12/31 07:14:23;;;;;;;43.57;21.57;;;;;;;0.06;84.40;99375.57;1788352;78;21411;-49
2021/12/31 07:16:49;;;;;;;40.53;20.97;;;;;;;0.06;84.49;99373.80;1764978;79;21048;-50
2021/12/31 07:19:16;;;;;;;35.73;19.83;;;;;;;0.08;84.51;99365.85;1774206;79;21181;-50
2021/12/31 07:21:42;;;;;;;37.50;20.50;;;;;;;0.11;84.51;99365.34;1762415;79;21067;-50
2021/12/31 07:24:09;;;;;;;40.13;21.63;;;;;;;0.11;84.53;99352.56;1778093;79;21722;-49
2021/12/31 07:26:35;;;;;;;37.70;19.97;;;;;;;0.14;84.55;99352.53;1773275;79;21538;-50
2021/12/31 07:29:01;;;;;;;41.47;21.97;;;;;;;0.16;84.57;99357.36;1775951;79;21045;-50
2021/12/31 07:31:28;;;;;;;40.83;22.73;;;;;;;0.18;84.61;99359.08;1778382;78;21120;-49
2021/12/31 07:33:56;;;;;;;47.47;23.93;;;;;;;0.19;84.68;99363.92;1779155;78;21047;-50
2021/12/31 07:36:23;;;;;;;44.57;21.87;;;;;;;0.20;84.72;99363.03;1776816;78;21026;-50
2021/12/31 07:38:58;;;;;;;38.10;19.80;;;;;;;0.22;84.73;99364.77;1778296;78;21109;-50
2021/12/31 07:41:17;;;;;;;41.50;19.57;;;;;;;0.25;84.77;99363.42;1771485;78;21050;-50
2021/12/31 07:43:44;;;;;;;39.93;20.83;;;;;;;0.28;84.88;99363.80;1775342;78;21124;-52
2021/12/31 07:46:12;;;;;;;42.13;20.73;;;;;;;0.30;84.99;99366.88;1775617;78;21214;-52
2021/12/31 07:48:39;;;;;;;42.83;21.20;;;;;;;0.33;85.09;99364.20;1776139;79;21097;-52
2021/12/31 07:51:05;;;;;;;40.73;21.20;;;;;;;0.36;85.11;99369.88;1774036;78;21085;-52
2021/12/31 07:53:33;;;;;;;40.33;20.37;;;;;;;0.37;85.11;99367.21;1774858;79;21050;-52
2021/12/31 07:55:59;;;;;;;41.97;21.07;;;;;;;0.41;85.14;99359.23;1772055;79;21097;-52
2021/12/31 07:58:27;;;;;;;36.77;18.50;;;;;;;0.45;85.18;99351.66;1763738;79;21061;-52
2021/12/31 08:00:54;;;;;;;42.03;21.13;;;;;;;0.48;85.28;99349.86;1761813;80;20919;-51
2021/12/31 08:03:22;;;;;;;43.20;21.63;;;;;;;0.53;85.34;99348.01;1761762;80;20981;-52
2021/12/31 08:05:48;;;;;;;37.40;19.93;;;;;;;0.55;85.39;99354.17;1758349;80;21129;-52
2021/12/31 08:08:15;;;;;;;40.33;19.70;;;;;;;0.58;85.41;99346.64;1757094;80;21421;-56
2021/12/31 08:10:41;;;;;;;40.57;20.90;;;;;;;0.59;85.39;99347.06;1755693;80;21860;-52
2021/12/31 08:13:07;;;;;;;45.07;21.13;;;;;;;0.61;85.40;99346.13;1754069;80;21002;-52
2021/12/31 08:15:33;;;;;;;37.67;18.83;;;;;;;0.66;85.47;99344.75;1760018;80;21476;-52
2021/12/31 08:18:00;;;;;;;39.87;18.60;;;;;;;0.71;85.53;99350.84;1769001;80;22246;-52
2021/12/31 08:20:26;;;;;;;38.53;20.10;;;;;;;0.76;85.64;99351.66;1768848;80;21564;-52
2021/12/31 08:22:52;;;;;;;46.77;23.30;;;;;;;0.81;85.68;99350.25;1768599;80;21532;-51
2021/12/31 08:25:19;;;;;;;42.00;21.80;;;;;;;0.84;85.70;99347.56;1759594;78;21110;-53
2021/12/31 08:27:45;;;;;;;41.57;20.80;;;;;;;0.86;85.73;99344.42;1761705;80;21035;-52
2021/12/31 08:30:11;;;;;;;42.33;20.87;;;;;;;0.88;85.75;99339.53;1755069;78;21102;-52
2021/12/31 08:32:39;;;;;;;37.70;18.80;;;;;;;0.89;85.68;99335.98;1776198;78;21051;-52
2021/12/31 08:35:07;;;;;;;39.87;20.27;;;;;;;0.91;85.63;99332.87;1756955;80;21178;-53
2021/12/31 08:37:35;;;;;;;33.63;17.50;;;;;;;0.94;85.60;99339.42;1763298;80;20918;-51
2021/12/31 08:40:01;;;;;;;36.03;19.53;;;;;;;0.96;85.64;99336.31;1759243;80;21000;-52
2021/12/31 08:42:27;;;;;;;41.37;19.97;;;;;;;0.99;85.69;99344.67;1759958;80;20956;-49
2021/12/31 08:44:55;;;;;;;44.47;21.93;;;;;;;1.00;85.74;99344.65;1758128;80;21007;-49
2021/12/31 08:47:21;;;;;;;44.13;22.30;;;;;;;1.04;85.90;99338.83;1760483;79;21496;-49
2021/12/31 08:49:48;;;;;;;48.63;21.93;;;;;;;1.07;85.88;99349.39;1758349;80;20936;-49
2021/12/31 08:52:15;;;;;;;42.37;20.43;;;;;;;1.09;85.87;99350.25;1759720;80;21445;-50
2021/12/31 08:54:41;;;;;;;41.63;20.50;;;;;;;1.10;85.80;99344.92;1761259;79;21848;-50
2021/12/31 08:57:07;;;;;;;42.60;19.87;;;;;;;1.15;85.81;99348.81;1760883;80;21505;-50
2021/12/31 08:59:34;;;;;;;41.17;20.47;;;;;;;1.19;85.81;99343.02;1761964;80;21868;-50
2021/12/31 09:02:00;;;;;;;46.37;22.90;;;;;;;1.22;85.86;99338.52;1762314;80;20920;-49
2021/12/31 09:04:26;;;;;;;45.53;22.87;;;;;;;1.24;85.89;99336.73;1758364;80;21035;-50
2021/12/31 09:06:53;;;;;;;48.00;22.87;;;;;;;1.28;86.05;99352.98;1758194;79;21055;-49
2021/12/31 09:09:20;;;;;;;47.77;22.67;;;;;;;1.32;86.04;99342.77;1756244;80;21098;-49
2021/12/31 09:11:46;;;;;;;46.37;22.23;;;;;;;1.33;86.01;99332.59;1753820;79;21481;-49
2021/12/31 09:14:12;;;;;;;42.13;20.43;;;;;;;1.37;85.98;99328.96;1759309;80;21105;-51
2021/12/31 09:16:45;;;;;;;39.30;19.47;;;;;;;1.41;85.88;99326.70;1752498;80;21078;-49
2021/12/31 09:19:08;;;;;;;42.33;20.07;;;;;;;1.44;85.98;99331.95;1753473;80;21093;-49
2021/12/31 09:21:35;;;;;;;49.60;22.67;;;;;;;1.46;85.97;99331.91;1753106;80;21125;-49
2021/12/31 09:24:01;;;;;;;47.47;22.17;;;;;;;1.50;86.09;99326.98;1762030;80;21202;-49
2021/12/31 09:26:27;;;;;;;46.57;22.07;;;;;;;1.53;86.08;99328.27;1758685;80;20924;-50
2021/12/31 09:28:53;;;;;;;47.33;22.67;;;;;;;1.55;86.08;99329.53;1757029;80;21105;-50
2021/12/31 09:31:20;;;;;;;48.40;24.33;;;;;;;1.56;86.09;99326.85;1755289;80;21102;-50
2021/12/31 09:33:47;;;;;;;48.40;23.67;;;;;;;1.58;86.05;99329.03;1753898;80;21809;-50
2021/12/31 09:36:15;;;;;;;44.23;22.53;;;;;;;1.60;86.00;99325.03;1758788;79;21528;-50
2021/12/31 09:38:41;;;;;;;41.77;19.77;;;;;;;1.63;85.92;99325.83;1760582;80;21078;-50
2021/12/31 09:41:09;;;;;;;38.30;19.17;;;;;;;1.65;85.88;99320.50;1757251;80;21176;-49
2021/12/31 09:43:38;;;;;;;40.00;21.47;;;;;;;1.67;85.90;99320.03;1752115;79;21152;-50
2021/12/31 09:46:04;;;;;;;44.00;21.43;;;;;;;1.68;85.94;99318.67;1754126;80;21094;-53
2021/12/31 09:48:31;;;;;;;40.77;19.63;;;;;;;1.69;85.94;99313.80;1757616;80;22337;-51
2021/12/31 09:50:59;;;;;;;42.73;20.33;;;;;;;1.72;85.99;99312.84;1755352;79;21086;-51
2021/12/31 09:53:27;;;;;;;46.87;23.97;;;;;;;1.72;85.95;99307.08;1750064;80;20925;-51
2021/12/31 09:55:55;;;;;;;46.73;22.37;;;;;;;1.70;85.93;99304.91;1764853;80;21259;-50
2021/12/31 09:58:25;;;;;;;38.97;19.47;;;;;;;1.72;85.97;99293.81;1760826;78;21041;-51
2021/12/31 10:01:01;;;;;;;44.53;21.70;;;;;;;1.74;85.93;99294.66;1760205;80;21034;-51
2021/12/31 10:03:26;;;;;;;38.43;18.47;;;;;;;1.78;85.99;99293.72;1759925;80;21030;-51
2021/12/31 10:06:01;;;;;;;41.33;19.97;;;;;;;1.83;86.09;99298.46;1767505;80;21105;-49
2021/12/31 10:08:30;;;;;;;35.03;18.83;;;;;;;1.88;86.13;99294.38;1764324;78;21102;-50
2021/12/31 10:11:11;;;;;;;37.13;20.03;;;;;;;1.95;86.21;99291.16;1758664;80;21121;-51
2021/12/31 10:13:41;;;;;;;34.73;19.30;;;;;;;2.00;86.27;99292.80;1765263;78;21210;-51
2021/12/31 10:16:26;;;;;;;43.97;22.80;;;;;;;2.07;86.28;99294.88;1762472;78;21102;-51
2021/12/31 10:19:13;;;;;;;40.37;21.00;;;;;;;2.10;86.22;99294.36;1762428;78;21116;-50
2021/12/31 10:21:46;;;;;;;38.13;20.47;;;;;;;2.11;86.18;99289.48;1759566;80;21078;-51
2021/12/31 10:24:38;;;;;;;38.67;20.07;;;;;;;2.14;86.07;99284.53;1764505;80;21629;-50
2021/12/31 10:27:20;;;;;;;34.17;18.03;;;;;;;2.16;86.02;99283.60;1764673;80;21141;-51
2021/12/31 10:30:05;;;;;;;30.47;16.73;;;;;;;2.19;85.99;99279.56;1759472;80;21066;-51
2021/12/31 10:32:40;;;;;;;35.57;17.83;;;;;;;2.24;86.02;99275.46;1759377;80;21020;-51
2021/12/31 10:35:14;;;;;;;32.20;15.90;;;;;;;2.27;86.04;99270.97;1760367;80;21240;-51
2021/12/31 10:38:01;;;;;;;36.73;18.23;;;;;;;2.31;86.01;99280.17;1762548;80;21563;-52
2021/12/31 10:40:32;;;;;;;33.10;17.40;;;;;;;2.34;86.01;99281.45;1759963;80;21078;-51
2021/12/31 10:43:25;;;;;;;38.83;20.17;;;;;;;2.35;86.00;99279.22;1771475;80;21030;-52
2021/12/31 10:46:05;;;;;;;37.53;18.93;;;;;;;2.39;86.04;99279.55;1764027;80;21121;-51
2021/12/31 10:48:46;;;;;;;34.83;18.60;;;;;;;2.40;85.93;99285.28;1764115;80;21066;-51
2021/12/31 10:51:14;;;;;;;36.03;17.87;;;;;;;2.36;85.90;99280.97;1765686;80;21182;-51
2021/12/31 10:53:44;;;;;;;31.60;16.73;;;;;;;2.34;85.88;99273.03;1773143;78;21766;-51
2021/12/31 10:56:13;;;;;;;29.80;16.37;;;;;;;2.37;85.91;99269.44;1767057;79;21082;-52
2021/12/31 10:58:46;;;;;;;33.57;17.00;;;;;;;2.37;85.99;99268.98;1763730;80;21623;-52
2021/12/31 11:01:15;;;;;;;30.17;15.30;;;;;;;2.40;86.09;99275.53;1769995;80;21023;-52
2021/12/31 11:03:43;;;;;;;32.17;16.40;;;;;;;2.42;86.11;99270.19;1763177;78;21024;-52
2021/12/31 11:06:13;;;;;;;31.77;16.30;;;;;;;2.42;86.13;99271.06;1765096;80;21115;-52
2021/12/31 11:08:47;;;;;;;30.30;15.80;;;;;;;2.42;86.16;99261.77;1769447;80;20951;-51
2021/12/31 11:11:14;;;;;;;;;;;;;;;2.44;86.24;99260.41;1773281;80;21122;-52
2021/12/31 11:13:40;;;;;;;29.63;15.17;;;;;;;2.43;86.20;99257.33;1766682;80;20539;-52
2021/12/31 11:16:09;;;;;;;31.47;16.03;;;;;;;2.41;86.20;99261.34;1762696;80;22376;-52
2021/12/31 11:18:34;;;;;;;21.60;11.80;;;;;;;2.42;86.21;99255.58;1769285;80;21867;-52
2021/12/31 11:21:03;;;;;;;20.13;10.37;;;;;;;2.43;86.22;99258.20;1768071;79;20916;-51
2021/12/31 11:23:31;;;;;;;22.20;12.53;;;;;;;2.47;86.32;99253.22;1769817;78;20911;-52
2021/12/31 11:26:06;;;;;;;17.83;10.67;;;;;;;2.52;86.42;99252.68;1768840;80;21405;-52
2021/12/31 11:28:41;;;;;;;18.73;10.40;;;;;;;2.58;86.50;99248.99;1774961;80;20946;-52
2021/12/31 11:31:23;;;;;;;20.17;11.33;;;;;;;2.64;86.66;99244.84;1774597;78;21016;-52
2021/12/31 11:34:03;;;;;;;21.70;11.63;;;;;;;2.70;86.65;99234.09;1766304;80;20967;-52